• Join FlightAware (Why Join?)
  • Login
  • US Flag 
03:24PM EST


 

Airport Tracker/Info


-or-


 

Live Flight TrackerFlight Track Log ✈ SWA4321 ✈ 28-Nov-2013 ✈ KTPA - KMDW

Flight Track Log - Related Links

Times and Time Zones

All times are in EST time to prevent confusion due to time zone crossing. See the SWA4321 flight status page for this flight to view local times or setup timezone preferences in your user account.

Time Position Orientation Groundspeed Altitude Reporting Facility
EST Latitude Longitude Course Direction KTS MPH feet Rate Location/Type
02:38PM 28.0000 -82.5333 360° North 150 173 800  Level Tampa TRACON
02:38PM 28.0000 -82.5333 270° West 165 190 1,200 2,220 Climbing Tampa TRACON
02:40PM 28.1119 -82.5561 350° North 249 287 5,400 2,640 Climbing Jacksonville Center
02:41PM 28.1767 -82.5958 332° Northwest 260 299 8,800 2,700 Climbing Jacksonville Center
02:42PM 28.2539 -82.6358 335° Northwest 280 322 10,900 2,460 Climbing Jacksonville Center
02:43PM 28.3417 -82.6850 334° Northwest 314 361 13,800 2,940 Climbing Jacksonville Center
02:44PM 28.4317 -82.7367 333° Northwest 341 392 16,800 2,460 Climbing Jacksonville Center
02:45PM 28.5256 -82.7864 335° Northwest 357 411 18,800 2,100 Climbing Jacksonville Center
02:46PM 28.6258 -82.8239 342° North 370 426 21,100 2,280 Climbing Jacksonville Center
02:47PM 28.7406 -82.8642 343° North 379 436 23,400 2,100 Climbing Jacksonville Center
02:48PM 28.8469 -82.9069 341° North 390 449 25,400 1,860 Climbing Jacksonville Center
02:49PM 28.9556 -82.9472 342° North 395 455 27,200 1,800 Climbing Jacksonville Center
02:50PM 29.0639 -82.9875 342° North 407 468 29,000 2,100 Climbing Jacksonville Center
02:51PM 29.1703 -83.0306 341° North 407 468 31,500 2,160 Climbing Jacksonville Center
02:52PM 29.2686 -83.0686 341° North 395 455 33,400 1,440 Climbing Jacksonville Center
02:53PM 29.3686 -83.1069 342° North 382 440 34,400 1,200 Climbing Jacksonville Center
02:54PM 29.4686 -83.1478 340° North 382 440 35,800 780 Climbing Jacksonville Center
02:55PM 29.5625 -83.1839 342° North 388 447 36,000 60 Climbing Jacksonville Center
02:56PM 29.6647 -83.2225 342° North 383 441 36,000  Level Jacksonville Center
02:57PM 29.7775 -83.2683 341° North 383 441 36,000  Level Jacksonville Center
02:58PM 29.8817 -83.3069 342° North 389 448 36,000  Level Jacksonville Center
02:59PM 29.9756 -83.3458 340° North 389 448 36,000  Level Jacksonville Center
03:00PM 30.0797 -83.3822 343° North 389 448 36,000  Level Jacksonville Center
03:01PM 30.1839 -83.4261 340° North 389 448 36,000  Level Jacksonville Center
03:02PM 30.2903 -83.4650 342° North 389 448 36,000  Level Jacksonville Center
03:03PM 30.3925 -83.5042 342° North 389 448 36,000  Level Jacksonville Center
03:04PM 30.4925 -83.5458 340° North 384 442 36,000  Level Jacksonville Center
03:05PM 30.5925 -83.5853 341° North 384 442 36,000  Level Jacksonville Center
03:06PM 30.6944 -83.6244 342° North 379 436 36,000  Level Jacksonville Center
03:07PM 30.7925 -83.6642 341° North 379 436 36,000  Level Jacksonville Center
03:08PM 30.8925 -83.7061 340° North 379 436 36,000  Level Jacksonville Center
03:09PM 30.9922 -83.7456 341° North 379 436 36,000  Level Jacksonville Center
03:10PM 31.0922 -83.7853 341° North 379 436 36,000  Level Jacksonville Center
03:11PM 31.1922 -83.8253 341° North 379 436 36,000  Level Jacksonville Center
03:12PM 31.2922 -83.8650 341° North 379 436 36,000  Level Jacksonville Center
03:14PM 31.4753 -83.9414 340° North 385 443 36,000  Level Atlanta Center
03:15PM 31.5922 -83.9778 345° North 385 443 36,000  Level Atlanta Center
03:16PM 31.7050 -84.0047 349° North 390 449 36,000  Level Atlanta Center
03:17PM 31.8156 -84.0267 350° North 396 456 36,000  Level Atlanta Center
03:18PM 31.9261 -84.0511 349° North 401 461 36,000  Level Atlanta Center
03:19PM 32.0389 -84.0756 350° North 401 461 36,000  Level Atlanta Center
03:20PM 32.1472 -84.0978 350° North 401 461 36,000  Level Atlanta Center
03:21PM 32.2600 -84.1247 349° North 407 468 36,000  Level Atlanta Center
03:22PM 32.3706 -84.1494 349° North 407 468 36,000  Level Atlanta Center
03:23PM 32.4792 -84.1742 349° North 407 468 36,000  Level Atlanta Center
03:24PM 32.5878 -84.1992 349° North 407 468 36,000  Level Atlanta Center
03:25PM 32.6983 -84.2214 350° North 401 461 36,000  Level Atlanta Center
03:26PM 32.8067 -84.2489 348° North 401 461 36,000  Level Atlanta Center
03:27PM 32.9153 -84.2739 349° North 396 456 36,000  Level Atlanta Center
03:28PM 33.0239 -84.3014 348° North 391 450 36,000  Level Atlanta Center
03:29PM 33.1322 -84.3242 350° North 391 450 36,000  Level Atlanta Center
03:30PM 33.2408 -84.3492 349° North 391 450 36,000  Level Atlanta Center
03:31PM 33.3472 -84.3719 350° North 396 456 36,000  Level Atlanta Center
03:32PM 33.4578 -84.3975 349° North 390 449 36,000  Level Atlanta Center
03:33PM 33.5642 -84.4228 349° North 390 449 36,000  Level Atlanta Center
03:34PM 33.6578 -84.4456 349° North 390 449 36,000  Level Atlanta Center
03:35PM 33.7642 -84.4711 349° North 390 449 36,000  Level Atlanta Center
03:36PM 33.8747 -84.4967 349° North 390 449 36,000  Level Atlanta Center
03:37PM 33.9958 -84.5250 349° North 401 461 36,000  Level Atlanta Center
03:38PM 34.1042 -84.5531 348° North 401 461 36,000  Level Atlanta Center
03:39PM 34.2167 -84.5789 349° North 409 471 36,000  Level Atlanta Center
03:40PM 34.3272 -84.6047 349° North 398 458 36,000  Level Atlanta Center
03:41PM 34.4356 -84.6306 349° North 393 452 36,000  Level Atlanta Center
03:42PM 34.5419 -84.6592 348° North 393 452 36,000  Level Atlanta Center
03:43PM 34.6525 -84.6828 350° North 393 452 36,000  Level Atlanta Center
03:44PM 34.7567 -84.7114 347° North 388 447 36,000  Level Atlanta Center
03:45PM 34.8608 -84.7400 347° North 388 447 36,000  Level Atlanta Center
03:46PM 34.9714 -84.7664 349° North 395 455 36,000  Level Atlanta Center
03:47PM 35.0775 -84.7925 349° North 395 455 36,000  Level Atlanta Center
03:48PM 35.1858 -84.8214 348° North 390 449 36,000  Level Atlanta Center
03:49PM 35.2942 -84.8453 350° North 390 449 36,000  Level Atlanta Center
03:50PM 35.4006 -84.8744 347° North 390 449 36,000  Level Atlanta Center
03:51PM 35.5044 -84.9011 348° North 390 449 36,000  Level Atlanta Center
03:52PM 35.6128 -84.9278 349° North 390 449 36,000  Level Atlanta Center
03:53PM 35.7169 -84.9569 347° North 390 449 36,000  Level Atlanta Center
03:55PM 35.9372 -85.0072 350° North 401 461 36,000  Level Indianapolis Center
03:56PM 36.0539 -85.0383 348° North 395 455 36,000  Level Indianapolis Center
03:57PM 36.1636 -85.0664 348° North 399 459 36,000  Level Indianapolis Center
03:58PM 36.2714 -85.0939 348° North 396 456 36,000  Level Indianapolis Center
03:59PM 36.3806 -85.1217 348° North 397 457 36,000  Level Indianapolis Center
04:00PM 36.4889 -85.1497 348° North 398 458 36,000  Level Indianapolis Center
04:01PM 36.5983 -85.1706 351° North 397 457 36,000  Level Indianapolis Center
04:02PM 36.7042 -85.1933 350° North 388 447 36,000  Level Indianapolis Center
04:03PM 36.8081 -85.2161 350° North 381 438 36,000  Level Indianapolis Center
04:04PM 36.9153 -85.2383 351° North 387 445 36,000  Level Indianapolis Center
04:05PM 37.0228 -85.2617 350° North 391 450 36,000  Level Indianapolis Center
04:06PM 37.1342 -85.2861 350° North 399 459 36,000  Level Indianapolis Center
04:07PM 37.2436 -85.3092 350° North 398 458 36,000  Level Indianapolis Center
04:08PM 37.3514 -85.3339 350° North 393 452 36,000  Level Indianapolis Center
04:09PM 37.4600 -85.3569 350° North 394 453 36,000  Level Indianapolis Center
04:10PM 37.5661 -85.3806 350° North 386 444 36,000  Level Indianapolis Center
04:11PM 37.6725 -85.4050 350° North 386 444 36,000  Level Indianapolis Center
04:12PM 37.7783 -85.4275 350° North 384 442 36,000  Level Indianapolis Center
04:13PM 37.8867 -85.4514 350° North 387 445 36,000  Level Indianapolis Center
04:14PM 37.9928 -85.4739 351° North 386 444 36,000  Level Indianapolis Center
04:15PM 38.0981 -85.4978 350° North 385 443 36,000  Level Indianapolis Center
04:16PM 38.2044 -85.5211 350° North 385 443 36,000 -480 Level Indianapolis Center
04:17PM 38.3103 -85.5433 351° North 384 442 35,100 -540 Descending Indianapolis Center
04:18PM 38.4156 -85.5692 349° North 384 442 35,000 -60 Descending Indianapolis Center
04:19PM 38.5233 -85.5919 351° North 388 447 35,000  Level Indianapolis Center
04:20PM 38.6425 -85.6194 350° North 396 456 35,000  Level Indianapolis Center
04:21PM 38.7514 -85.6444 350° North 399 459 35,000  Level Indianapolis Center
04:22PM 38.8594 -85.6683 350° North 397 457 35,000 -120 Level Indianapolis Center
04:23PM 38.9689 -85.6939 350° North 399 459 34,800 -600 Descending Indianapolis Center
04:24PM 39.0717 -85.7189 349° North 385 443 33,800 -1,080 Descending Indianapolis Center
04:25PM 39.1750 -85.7411 351° North 378 435 32,700 -1,380 Descending Indianapolis Center
04:26PM 39.2794 -85.7653 350° North 383 441 31,000 -1,560 Descending Indianapolis Center
04:27PM 39.4000 -85.7925 350° North 371 427 29,600 -1,020 Descending Indianapolis Center
04:28PM 39.5047 -85.8169 350° North 382 440 29,000 -300 Descending Indianapolis Center
04:29PM 39.6119 -85.8425 350° North 393 452 29,000  Level Indianapolis Center
04:30PM 39.7208 -85.8669 350° North 400 460 29,000 -120 Level Indianapolis Center
04:31PM 39.8278 -85.8925 350° North 397 457 28,800 -1,260 Descending Indianapolis Center
04:32PM 39.9297 -85.9169 350° North 384 442 26,500 -2,340 Descending Indianapolis Center
04:33PM 40.0258 -85.9383 350° North 361 415 24,100 -1,260 Descending Indianapolis Center
04:34PM 40.1056 -85.9886 334° Northwest 322 371 24,000 -240 Descending Indianapolis Center
04:35PM 40.1522 -86.0267 328° Northwest 330 380 23,800 -600 Descending Chicago Center
04:36PM 40.2322 -86.0906 329° Northwest 337 388 23,100 -360 Descending Chicago Center
04:37PM 40.3169 -86.1589 328° Northwest 358 412 23,100 -60 Level Chicago Center
04:38PM 40.4233 -86.2469 328° Northwest 379 436 23,000 -60 Descending Chicago Center
04:39PM 40.5058 -86.3144 328° Northwest 355 409 23,000  Level Chicago Center
04:40PM 40.5864 -86.3811 328° Northwest 347 399 23,000  Level Chicago Center
04:41PM 40.6700 -86.4494 328° Northwest 353 406 23,000  Level Chicago Center
04:42PM 40.7578 -86.5236 327° Northwest 360 414 23,000 -240 Level Chicago Center
04:43PM 40.8433 -86.5944 328° Northwest 363 418 22,600 -1,320 Descending Chicago Center
04:44PM 40.9228 -86.6608 328° Northwest 342 394 20,400 -2,220 Descending Chicago Center
04:45PM 40.9975 -86.7219 328° Northwest 319 367 18,200 -2,280 Descending Chicago Center
04:46PM 41.0756 -86.7875 328° Northwest 304 350 15,800 -2,220 Descending Chicago Center
04:47PM 41.1447 -86.8442 328° Northwest 294 338 13,700 -2,100 Descending Chicago Center
04:48PM 41.2100 -86.9003 327° Northwest 284 327 11,600 -1,680 Descending Chicago Center
04:49PM 41.2711 -86.9525 327° Northwest 266 306 10,300 -1,440 Descending Chicago Center
04:50PM 41.3275 -86.9994 328° Northwest 246 283 8,800 -1,200 Descending Chicago Center
04:51PM 41.3833 -87.0472 327° Northwest 241 277 8,000 -720 Descending Chicago Center
04:52PM 41.4397 -87.0953 327° Northwest 240 276 7,400 -840 Descending Chicago Center
04:53PM 41.4953 -87.1422 328° Northwest 239 275 6,300 -1,080 Descending Chicago Center
04:54PM 41.5275 -87.2233 298° West 252 290 5,300 -1,020 Descending Chicago Center
04:55PM 41.5556 -87.3006 296° West 238 274 4,300 -660 Descending Chicago Center
04:56PM 41.5925 -87.3961 297° West 239 275 4,000 -180 Descending Chicago Center
04:57PM 41.6231 -87.4786 296° West 244 281 4,000  Level Chicago Center
04:58PM 41.6497 -87.5481 297° West 229 264 4,000 -60 Level Chicago Center
04:59PM 41.6731 -87.5989 302° West 185 213 3,900 -600 Descending Chicago Center
05:00PM 41.7064 -87.6411 317° Northwest 170 196 2,900 -960 Descending Chicago Center
05:01PM 41.7361 -87.6839 313° West 165 190 2,000 -840 Descending Chicago Center
05:02PM 41.7592 -87.7164 314° West 144 166 1,300 -600 Descending Chicago Center
05:03PM 41.7833 -87.7506 313° West 131 151 900 -420 Descending Chicago Center
05:05PM 41.7833 -87.7500 20° North  Level FlightAware Approximate